N388LS KPBI-KLAS
Flight info
| Callsign | N388LS |
|---|---|
| Flight time | N/A |
| Altitude | 38000 |
| Route | OLAKE3 JAYMC Y280 REMIS ROZZI RQR FXU/N0472F400 CQY HULZE IMMAS GUP J72 DILCO HAHAA RKSTR4 |
| Aircraft | L101/H-SDFGHIRWXY/S |
Departure
| Time | 2026-04-30 11:07 |
|---|---|
| Airport | Palm Beach International Airport (KPBI) |
Arrival
| Time | N/A |
|---|---|
| Airport | Harry Reid International Airport (KLAS) |
| Time | Latitude | Longitude | Altitude | Speed | Heading |
|---|---|---|---|---|---|
| 2026-04-30 10:35 | 26.67971 | -80.09558 | 33 ft | 0 kts | 182° |
| 2026-04-30 10:37 | 26.67963 | -80.09558 | 33 ft | 0 kts | 182° |
| 2026-04-30 10:38 | 26.67982 | -80.09658 | 33 ft | 0 kts | 271° |
| 2026-04-30 10:39 | 26.67963 | -80.09558 | 33 ft | 0 kts | 182° |
| 2026-04-30 10:42 | 26.67965 | -80.09350 | 34 ft | 0 kts | 114° |
| 2026-04-30 11:01 | 26.67964 | -80.09349 | 34 ft | 0 kts | 114° |
| 2026-04-30 11:02 | 26.67964 | -80.09347 | 34 ft | 0 kts | 105° |
| 2026-04-30 11:02 | 26.67965 | -80.09339 | 32 ft | 2 kts | 82° |
| 2026-04-30 11:02 | 26.67980 | -80.09308 | 34 ft | 7 kts | 60° |
| 2026-04-30 11:02 | 26.67976 | -80.09247 | 35 ft | 10 kts | 121° |
| 2026-04-30 11:03 | 26.67939 | -80.09206 | 36 ft | 12 kts | 137° |
| 2026-04-30 11:03 | 26.67870 | -80.09134 | 37 ft | 15 kts | 136° |
| 2026-04-30 11:03 | 26.67820 | -80.09041 | 39 ft | 15 kts | 95° |
| 2026-04-30 11:04 | 26.67895 | -80.08748 | 36 ft | 24 kts | 75° |
| 2026-04-30 11:04 | 26.67939 | -80.08555 | 35 ft | 27 kts | 73° |
| 2026-04-30 11:04 | 26.67992 | -80.08341 | 35 ft | 29 kts | 75° |
| 2026-04-30 11:04 | 26.68043 | -80.08131 | 36 ft | 26 kts | 75° |
| 2026-04-30 11:05 | 26.68086 | -80.07942 | 39 ft | 24 kts | 91° |
| 2026-04-30 11:05 | 26.68087 | -80.07819 | 38 ft | 1 kts | 70° |
| 2026-04-30 11:05 | 26.68089 | -80.07817 | 38 ft | 2 kts | 57° |
| 2026-04-30 11:05 | 26.68120 | -80.07797 | 38 ft | 9 kts | 17° |
| 2026-04-30 11:06 | 26.68175 | -80.07799 | 36 ft | 2 kts | 322° |
| 2026-04-30 11:06 | 26.68189 | -80.07837 | 38 ft | 9 kts | 285° |
| 2026-04-30 11:06 | 26.68201 | -80.08065 | 39 ft | 71 kts | 273° |
| 2026-04-30 11:06 | 26.68237 | -80.08987 | 53 ft | 159 kts | 272° |
| 2026-04-30 11:07 | 26.68280 | -80.10294 | 948 ft | 180 kts | 271° |
| 2026-04-30 11:07 | 26.68321 | -80.11768 | 1991 ft | 195 kts | 271° |
| 2026-04-30 11:07 | 26.68378 | -80.13431 | 2663 ft | 235 kts | 271° |
| 2026-04-30 11:07 | 26.68453 | -80.15409 | 2975 ft | 279 kts | 272° |
| 2026-04-30 11:08 | 26.68544 | -80.17551 | 3728 ft | 263 kts | 272° |
| 2026-04-30 11:08 | 26.68639 | -80.19612 | 4559 ft | 267 kts | 274° |
| 2026-04-30 11:08 | 26.69030 | -80.21653 | 4944 ft | 271 kts | 290° |
| 2026-04-30 11:08 | 26.69895 | -80.23518 | 5152 ft | 273 kts | 302° |
| 2026-04-30 11:09 | 26.71010 | -80.25269 | 5292 ft | 274 kts | 306° |
| 2026-04-30 11:09 | 26.72244 | -80.26897 | 5444 ft | 273 kts | 316° |
| 2026-04-30 11:09 | 26.73807 | -80.28098 | 5786 ft | 275 kts | 332° |
| 2026-04-30 11:09 | 26.75572 | -80.28965 | 6171 ft | 279 kts | 338° |
| 2026-04-30 11:10 | 26.77403 | -80.29698 | 6593 ft | 280 kts | 340° |
| 2026-04-30 11:10 | 26.79241 | -80.30440 | 7099 ft | 282 kts | 338° |
| 2026-04-30 11:10 | 26.81074 | -80.31257 | 7601 ft | 284 kts | 336° |
| 2026-04-30 11:10 | 26.82878 | -80.32133 | 8095 ft | 286 kts | 335° |
| 2026-04-30 11:11 | 26.84698 | -80.33064 | 8599 ft | 288 kts | 334° |
| 2026-04-30 11:11 | 26.86527 | -80.34016 | 9101 ft | 290 kts | 334° |
| 2026-04-30 11:11 | 26.88367 | -80.34970 | 9591 ft | 293 kts | 335° |
| 2026-04-30 11:11 | 26.90148 | -80.36069 | 10061 ft | 294 kts | 321° |
| 2026-04-30 11:12 | 26.91503 | -80.37747 | 10524 ft | 290 kts | 300° |
| 2026-04-30 11:12 | 26.92251 | -80.39839 | 11039 ft | 290 kts | 283° |
| 2026-04-30 11:12 | 26.92530 | -80.42081 | 11560 ft | 291 kts | 274° |
| 2026-04-30 11:12 | 26.92590 | -80.44351 | 12057 ft | 292 kts | 271° |
| 2026-04-30 11:13 | 26.92618 | -80.46635 | 12558 ft | 292 kts | 272° |
| 2026-04-30 11:13 | 26.92721 | -80.48911 | 13063 ft | 292 kts | 275° |
| 2026-04-30 11:13 | 26.92910 | -80.51149 | 13595 ft | 293 kts | 277° |
| 2026-04-30 11:13 | 26.93160 | -80.53430 | 14074 ft | 296 kts | 278° |
| 2026-04-30 11:14 | 26.93437 | -80.55718 | 14554 ft | 297 kts | 278° |
| 2026-04-30 11:14 | 26.93715 | -80.58015 | 15058 ft | 297 kts | 278° |
| 2026-04-30 11:14 | 26.93984 | -80.60324 | 15556 ft | 299 kts | 278° |
| 2026-04-30 11:14 | 26.94242 | -80.62638 | 16057 ft | 301 kts | 278° |
| 2026-04-30 11:15 | 26.94489 | -80.64977 | 16559 ft | 303 kts | 278° |
| 2026-04-30 11:15 | 26.94730 | -80.67299 | 17058 ft | 304 kts | 278° |
| 2026-04-30 11:15 | 26.94975 | -80.69660 | 17587 ft | 306 kts | 278° |
| 2026-04-30 11:15 | 26.95223 | -80.72040 | 18073 ft | 308 kts | 278° |
| 2026-04-30 11:16 | 26.95475 | -80.74429 | 18544 ft | 308 kts | 278° |
| 2026-04-30 11:16 | 26.95731 | -80.76824 | 19052 ft | 310 kts | 279° |
| 2026-04-30 11:16 | 26.95964 | -80.79232 | 19553 ft | 313 kts | 277° |
| 2026-04-30 11:16 | 26.96100 | -80.81680 | 20057 ft | 316 kts | 275° |
| 2026-04-30 11:17 | 26.96166 | -80.84122 | 20551 ft | 319 kts | 274° |
| 2026-04-30 11:17 | 26.96211 | -80.86613 | 21052 ft | 321 kts | 274° |
| 2026-04-30 11:17 | 26.96266 | -80.89124 | 21553 ft | 323 kts | 274° |
| 2026-04-30 11:17 | 26.96342 | -80.91646 | 22053 ft | 325 kts | 275° |
| 2026-04-30 11:18 | 26.96438 | -80.94188 | 22555 ft | 327 kts | 275° |
| 2026-04-30 11:18 | 26.96655 | -80.99324 | 23558 ft | 332 kts | 275° |
| 2026-04-30 11:18 | 26.96764 | -81.01928 | 24059 ft | 335 kts | 275° |
| 2026-04-30 11:19 | 26.96869 | -81.04545 | 24559 ft | 338 kts | 275° |
| 2026-04-30 11:19 | 26.96971 | -81.07190 | 25070 ft | 341 kts | 275° |
| 2026-04-30 11:19 | 26.97071 | -81.09858 | 25569 ft | 344 kts | 275° |
| 2026-04-30 11:19 | 26.97171 | -81.12554 | 26063 ft | 348 kts | 275° |
| 2026-04-30 11:20 | 26.97271 | -81.15281 | 26566 ft | 351 kts | 275° |
| 2026-04-30 11:20 | 26.97371 | -81.18031 | 27068 ft | 355 kts | 275° |
| 2026-04-30 11:20 | 26.97474 | -81.20770 | 27563 ft | 358 kts | 275° |
| 2026-04-30 11:20 | 26.97580 | -81.23579 | 28061 ft | 362 kts | 275° |
| 2026-04-30 11:21 | 26.97686 | -81.26410 | 28565 ft | 365 kts | 275° |
| 2026-04-30 11:21 | 26.97793 | -81.29270 | 29067 ft | 369 kts | 275° |
| 2026-04-30 11:21 | 26.97901 | -81.32157 | 29551 ft | 372 kts | 275° |
| 2026-04-30 11:21 | 26.98012 | -81.35110 | 30073 ft | 376 kts | 276° |
| 2026-04-30 11:22 | 26.98403 | -81.37966 | 30552 ft | 376 kts | 287° |
| 2026-04-30 11:22 | 26.99340 | -81.40739 | 31081 ft | 377 kts | 297° |
| 2026-04-30 11:22 | 27.00618 | -81.43271 | 31566 ft | 380 kts | 303° |
| 2026-04-30 11:22 | 27.02121 | -81.45720 | 32076 ft | 382 kts | 306° |
| 2026-04-30 11:23 | 27.03721 | -81.48115 | 32579 ft | 385 kts | 307° |
| 2026-04-30 11:23 | 27.05344 | -81.50512 | 33078 ft | 387 kts | 306° |
| 2026-04-30 11:23 | 27.08504 | -81.55444 | 34081 ft | 391 kts | 304° |
| 2026-04-30 11:24 | 27.10022 | -81.57990 | 34593 ft | 394 kts | 303° |
| 2026-04-30 11:24 | 27.11513 | -81.60585 | 35071 ft | 396 kts | 302° |
| 2026-04-30 11:24 | 27.12988 | -81.63213 | 35585 ft | 399 kts | 302° |
| 2026-04-30 11:25 | 27.15932 | -81.68542 | 36584 ft | 404 kts | 302° |
| 2026-04-30 11:25 | 27.17420 | -81.71231 | 37083 ft | 407 kts | 303° |
| 2026-04-30 11:25 | 27.20459 | -81.76683 | 37785 ft | 416 kts | 303° |
| 2026-04-30 11:26 | 27.23547 | -81.82186 | 37968 ft | 416 kts | 303° |
| 2026-04-30 11:26 | 27.26625 | -81.87672 | 37985 ft | 413 kts | 303° |
| 2026-04-30 11:27 | 27.29375 | -81.93301 | 37981 ft | 414 kts | 293° |
| 2026-04-30 11:27 | 27.30888 | -81.99551 | 37989 ft | 416 kts | 283° |
| 2026-04-30 11:28 | 27.32151 | -82.09197 | 37982 ft | 414 kts | 282° |
| 2026-04-30 11:29 | 27.33088 | -82.15577 | 37979 ft | 412 kts | 284° |
| 2026-04-30 11:29 | 27.34808 | -82.25014 | 37978 ft | 410 kts | 286° |
| 2026-04-30 11:30 | 27.36628 | -82.34402 | 37968 ft | 409 kts | 286° |
| 2026-04-30 11:31 | 27.37799 | -82.40626 | 37967 ft | 410 kts | 286° |
| 2026-04-30 11:31 | 27.38955 | -82.46910 | 37962 ft | 409 kts | 286° |
| 2026-04-30 11:32 | 27.40103 | -82.53188 | 37975 ft | 410 kts | 285° |
| 2026-04-30 11:32 | 27.41256 | -82.59484 | 37972 ft | 410 kts | 285° |
| 2026-04-30 11:33 | 27.43015 | -82.68900 | 37979 ft | 409 kts | 286° |
| 2026-04-30 11:33 | 27.44186 | -82.75138 | 37979 ft | 409 kts | 286° |
| 2026-04-30 11:34 | 27.45356 | -82.81412 | 37967 ft | 409 kts | 285° |
| 2026-04-30 11:34 | 27.46521 | -82.87698 | 37970 ft | 409 kts | 285° |
| 2026-04-30 11:35 | 27.47670 | -82.93943 | 37954 ft | 409 kts | 285° |
| 2026-04-30 11:35 | 27.48830 | -83.00211 | 37960 ft | 408 kts | 286° |
| 2026-04-30 11:36 | 27.49987 | -83.06470 | 37969 ft | 408 kts | 286° |
| 2026-04-30 11:36 | 27.51141 | -83.12742 | 37961 ft | 408 kts | 286° |
| 2026-04-30 11:37 | 27.52286 | -83.19007 | 37949 ft | 408 kts | 285° |
| 2026-04-30 11:37 | 27.53424 | -83.25260 | 37958 ft | 407 kts | 285° |
| 2026-04-30 11:38 | 27.54558 | -83.31517 | 37953 ft | 407 kts | 285° |
| 2026-04-30 11:38 | 27.55681 | -83.37712 | 37960 ft | 405 kts | 286° |
| 2026-04-30 11:39 | 27.56808 | -83.43930 | 37968 ft | 405 kts | 286° |
| 2026-04-30 11:39 | 27.57933 | -83.50161 | 37972 ft | 404 kts | 286° |
| 2026-04-30 11:40 | 27.59057 | -83.56368 | 37968 ft | 404 kts | 286° |
| 2026-04-30 11:40 | 27.60175 | -83.62566 | 37966 ft | 402 kts | 286° |
| 2026-04-30 11:41 | 27.61295 | -83.68747 | 37960 ft | 402 kts | 286° |
| 2026-04-30 11:41 | 27.62397 | -83.74940 | 37956 ft | 401 kts | 286° |
| 2026-04-30 11:42 | 27.63490 | -83.81067 | 37961 ft | 401 kts | 286° |
| 2026-04-30 11:42 | 27.64581 | -83.87241 | 37967 ft | 401 kts | 286° |
| 2026-04-30 11:43 | 27.65664 | -83.93408 | 37954 ft | 399 kts | 286° |
| 2026-04-30 11:43 | 27.66749 | -83.99560 | 37962 ft | 399 kts | 286° |
| 2026-04-30 11:44 | 27.67837 | -84.05712 | 37967 ft | 399 kts | 286° |
| 2026-04-30 11:44 | 27.68914 | -84.11822 | 37967 ft | 400 kts | 286° |
| 2026-04-30 11:45 | 27.69991 | -84.17979 | 37954 ft | 400 kts | 286° |
| 2026-04-30 11:45 | 27.70883 | -84.23099 | 37959 ft | 400 kts | 286° |
| 2026-04-30 11:46 | 27.72143 | -84.30313 | 37966 ft | 401 kts | 285° |
| 2026-04-30 11:46 | 27.73217 | -84.36494 | 37958 ft | 401 kts | 285° |
| 2026-04-30 11:47 | 27.74110 | -84.41641 | 37962 ft | 402 kts | 285° |
| 2026-04-30 11:47 | 27.75355 | -84.48846 | 37963 ft | 403 kts | 285° |
| 2026-04-30 11:48 | 27.76430 | -84.55062 | 37962 ft | 403 kts | 285° |
| 2026-04-30 11:48 | 27.77324 | -84.60239 | 37960 ft | 404 kts | 285° |
| 2026-04-30 11:49 | 27.78391 | -84.66486 | 37958 ft | 406 kts | 285° |
| 2026-04-30 11:49 | 27.79458 | -84.72755 | 37945 ft | 407 kts | 285° |
| 2026-04-30 11:50 | 27.80527 | -84.79054 | 37949 ft | 408 kts | 284° |
| 2026-04-30 11:50 | 27.81592 | -84.85352 | 37956 ft | 409 kts | 284° |
| 2026-04-30 11:51 | 27.82665 | -84.91684 | 37954 ft | 411 kts | 284° |
| 2026-04-30 11:51 | 27.83741 | -84.98039 | 37957 ft | 412 kts | 284° |
| 2026-04-30 11:52 | 27.84811 | -85.04379 | 37959 ft | 413 kts | 284° |
| 2026-04-30 11:52 | 27.85885 | -85.10783 | 37944 ft | 416 kts | 284° |
| 2026-04-30 11:53 | 27.86965 | -85.17209 | 37950 ft | 416 kts | 284° |
| 2026-04-30 11:53 | 27.88037 | -85.23660 | 37940 ft | 417 kts | 283° |
| 2026-04-30 11:54 | 27.89326 | -85.30050 | 37945 ft | 416 kts | 289° |
| 2026-04-30 11:54 | 27.91203 | -85.36241 | 37949 ft | 416 kts | 292° |
| 2026-04-30 11:55 | 27.93267 | -85.42331 | 37938 ft | 418 kts | 292° |
| 2026-04-30 11:55 | 27.95292 | -85.48510 | 37948 ft | 419 kts | 291° |
| 2026-04-30 11:56 | 27.97219 | -85.54765 | 37948 ft | 420 kts | 290° |
| 2026-04-30 11:56 | 27.99088 | -85.61044 | 37941 ft | 422 kts | 290° |
| 2026-04-30 11:57 | 28.00937 | -85.67301 | 37945 ft | 421 kts | 290° |
| 2026-04-30 11:57 | 28.02804 | -85.73579 | 37949 ft | 421 kts | 290° |
| 2026-04-30 11:58 | 28.04682 | -85.79858 | 37944 ft | 421 kts | 290° |
| 2026-04-30 11:58 | 28.06569 | -85.86150 | 37949 ft | 422 kts | 290° |
| 2026-04-30 11:59 | 28.08461 | -85.92452 | 37942 ft | 423 kts | 290° |
| 2026-04-30 11:59 | 28.10344 | -85.98767 | 37942 ft | 424 kts | 290° |
| 2026-04-30 12:00 | 28.12222 | -86.05098 | 37939 ft | 424 kts | 290° |
| 2026-04-30 12:00 | 28.14096 | -86.11435 | 37943 ft | 423 kts | 290° |
| 2026-04-30 12:01 | 28.15967 | -86.17763 | 37943 ft | 423 kts | 290° |
| 2026-04-30 12:01 | 28.17832 | -86.24079 | 37947 ft | 422 kts | 290° |
| 2026-04-30 12:02 | 28.19688 | -86.30380 | 37949 ft | 421 kts | 290° |
| 2026-04-30 12:02 | 28.21530 | -86.36636 | 37950 ft | 420 kts | 290° |
| 2026-04-30 12:03 | 28.24291 | -86.46036 | 37933 ft | 417 kts | 290° |
| 2026-04-30 12:04 | 28.26115 | -86.52275 | 37935 ft | 416 kts | 290° |
| 2026-04-30 12:04 | 28.27917 | -86.58440 | 37932 ft | 413 kts | 290° |
| 2026-04-30 12:05 | 28.29724 | -86.64629 | 37937 ft | 412 kts | 290° |
| 2026-04-30 12:05 | 28.31527 | -86.70780 | 37929 ft | 409 kts | 291° |
| 2026-04-30 12:06 | 28.33844 | -86.76643 | 37934 ft | 406 kts | 299° |
| 2026-04-30 12:06 | 28.36645 | -86.82205 | 37931 ft | 404 kts | 302° |
| 2026-04-30 12:07 | 28.39502 | -86.87646 | 37934 ft | 403 kts | 301° |
| 2026-04-30 12:07 | 28.42276 | -86.93163 | 37934 ft | 401 kts | 300° |
| 2026-04-30 12:08 | 28.44939 | -86.98712 | 37938 ft | 400 kts | 299° |
| 2026-04-30 12:08 | 28.47560 | -87.04285 | 37934 ft | 399 kts | 299° |
| 2026-04-30 12:09 | 28.50169 | -87.09842 | 37932 ft | 397 kts | 299° |
| 2026-04-30 12:09 | 28.52774 | -87.15373 | 37933 ft | 396 kts | 299° |
| 2026-04-30 12:10 | 28.55385 | -87.20886 | 37946 ft | 396 kts | 299° |
| 2026-04-30 12:10 | 28.57995 | -87.26392 | 37948 ft | 395 kts | 299° |
| 2026-04-30 12:11 | 28.60579 | -87.31858 | 37940 ft | 394 kts | 299° |
| 2026-04-30 12:11 | 28.63171 | -87.37350 | 37939 ft | 393 kts | 299° |
| 2026-04-30 12:12 | 28.65754 | -87.42832 | 37938 ft | 393 kts | 299° |
| 2026-04-30 12:12 | 28.68330 | -87.48314 | 37942 ft | 393 kts | 299° |
| 2026-04-30 12:13 | 28.70904 | -87.53801 | 37947 ft | 393 kts | 299° |
| 2026-04-30 12:13 | 28.73479 | -87.59292 | 37937 ft | 392 kts | 299° |
| 2026-04-30 12:14 | 28.76052 | -87.64780 | 37942 ft | 392 kts | 299° |
| 2026-04-30 12:14 | 28.78605 | -87.70228 | 37941 ft | 392 kts | 298° |
| 2026-04-30 12:15 | 28.81165 | -87.75709 | 37939 ft | 392 kts | 298° |
| 2026-04-30 12:15 | 28.83719 | -87.81194 | 37947 ft | 390 kts | 299° |
| 2026-04-30 12:16 | 28.86230 | -87.86598 | 37937 ft | 381 kts | 298° |
| 2026-04-30 12:16 | 28.88701 | -87.91930 | 37941 ft | 378 kts | 298° |
| 2026-04-30 12:17 | 28.92396 | -87.99902 | 37942 ft | 378 kts | 298° |
| 2026-04-30 12:17 | 28.94841 | -88.05167 | 37937 ft | 377 kts | 298° |
| 2026-04-30 12:18 | 28.97292 | -88.10455 | 37944 ft | 375 kts | 298° |
| 2026-04-30 12:18 | 28.99728 | -88.15721 | 37937 ft | 375 kts | 298° |
| 2026-04-30 12:19 | 29.02160 | -88.20987 | 37947 ft | 375 kts | 298° |
| 2026-04-30 12:19 | 29.04591 | -88.26256 | 37945 ft | 375 kts | 298° |
| 2026-04-30 12:20 | 29.07014 | -88.31524 | 37948 ft | 374 kts | 298° |
| 2026-04-30 12:20 | 29.09426 | -88.36761 | 37942 ft | 374 kts | 298° |
| 2026-04-30 12:21 | 29.11856 | -88.42026 | 37949 ft | 374 kts | 298° |
| 2026-04-30 12:21 | 29.14269 | -88.47291 | 37948 ft | 373 kts | 298° |
| 2026-04-30 12:22 | 29.16675 | -88.52570 | 37962 ft | 373 kts | 298° |
| 2026-04-30 12:22 | 29.19074 | -88.57845 | 37941 ft | 373 kts | 298° |
| 2026-04-30 12:23 | 29.21473 | -88.63082 | 37951 ft | 373 kts | 298° |
| 2026-04-30 12:23 | 29.23888 | -88.68351 | 37951 ft | 374 kts | 298° |
| 2026-04-30 12:24 | 29.26296 | -88.73629 | 37961 ft | 373 kts | 298° |
| 2026-04-30 12:24 | 29.28697 | -88.78904 | 37962 ft | 373 kts | 298° |
| 2026-04-30 12:25 | 29.31095 | -88.84174 | 37945 ft | 372 kts | 297° |
| 2026-04-30 12:25 | 29.33484 | -88.89438 | 37946 ft | 372 kts | 298° |
| 2026-04-30 12:26 | 29.35879 | -88.94703 | 37955 ft | 372 kts | 297° |
| 2026-04-30 12:26 | 29.38260 | -88.99969 | 37956 ft | 372 kts | 297° |
| 2026-04-30 12:27 | 29.40639 | -89.05241 | 37946 ft | 372 kts | 297° |
| 2026-04-30 12:27 | 29.42995 | -89.10471 | 37959 ft | 371 kts | 297° |
| 2026-04-30 12:28 | 29.45365 | -89.15734 | 37951 ft | 371 kts | 297° |
| 2026-04-30 12:28 | 29.47732 | -89.20996 | 37940 ft | 370 kts | 297° |
| 2026-04-30 12:29 | 29.50092 | -89.26256 | 37939 ft | 370 kts | 297° |
| 2026-04-30 12:29 | 29.52452 | -89.31508 | 37937 ft | 370 kts | 297° |
| 2026-04-30 12:30 | 29.54797 | -89.36731 | 37946 ft | 370 kts | 297° |
| 2026-04-30 12:30 | 29.57150 | -89.41972 | 37948 ft | 369 kts | 297° |
| 2026-04-30 12:31 | 29.59495 | -89.47210 | 37938 ft | 369 kts | 297° |
| 2026-04-30 12:31 | 29.61833 | -89.52453 | 37934 ft | 368 kts | 297° |
| 2026-04-30 12:32 | 29.64158 | -89.57680 | 37937 ft | 368 kts | 297° |
| 2026-04-30 12:32 | 29.66485 | -89.62912 | 37937 ft | 367 kts | 297° |
| 2026-04-30 12:33 | 29.68808 | -89.68134 | 37936 ft | 367 kts | 296° |
| 2026-04-30 12:33 | 29.71124 | -89.73357 | 37930 ft | 366 kts | 296° |
| 2026-04-30 12:34 | 29.73433 | -89.78574 | 37932 ft | 366 kts | 296° |
| 2026-04-30 12:34 | 29.75748 | -89.83796 | 37936 ft | 366 kts | 296° |
| 2026-04-30 12:35 | 29.78047 | -89.88981 | 37927 ft | 366 kts | 296° |
| 2026-04-30 12:35 | 29.80354 | -89.94198 | 37924 ft | 365 kts | 296° |
| 2026-04-30 12:36 | 29.82653 | -89.99411 | 37924 ft | 365 kts | 296° |
| 2026-04-30 12:36 | 29.84571 | -90.03778 | 37922 ft | 365 kts | 296° |
| 2026-04-30 12:37 | 29.87240 | -90.09838 | 37924 ft | 365 kts | 296° |
| 2026-04-30 12:37 | 29.89149 | -90.14176 | 37926 ft | 365 kts | 296° |
| 2026-04-30 12:38 | 29.91444 | -90.19395 | 37923 ft | 365 kts | 296° |
| 2026-04-30 12:38 | 29.93735 | -90.24618 | 37922 ft | 365 kts | 296° |
| 2026-04-30 12:39 | 29.96029 | -90.29851 | 37929 ft | 365 kts | 296° |
| 2026-04-30 12:39 | 29.98302 | -90.35046 | 37928 ft | 365 kts | 296° |
| 2026-04-30 12:40 | 30.00594 | -90.40292 | 37929 ft | 366 kts | 296° |
| 2026-04-30 12:40 | 30.02878 | -90.45529 | 37935 ft | 364 kts | 296° |
| 2026-04-30 12:41 | 30.05152 | -90.50756 | 37949 ft | 364 kts | 296° |
| 2026-04-30 12:41 | 30.07422 | -90.55972 | 37945 ft | 364 kts | 296° |
| 2026-04-30 12:42 | 30.09666 | -90.61169 | 37948 ft | 364 kts | 295° |
| 2026-04-30 12:42 | 30.11828 | -90.66446 | 37960 ft | 364 kts | 294° |
| 2026-04-30 12:43 | 30.13937 | -90.71758 | 37952 ft | 364 kts | 294° |
| 2026-04-30 12:43 | 30.16034 | -90.77076 | 37957 ft | 363 kts | 294° |
| 2026-04-30 12:44 | 30.18139 | -90.82385 | 37944 ft | 363 kts | 294° |
| 2026-04-30 12:44 | 30.20250 | -90.87682 | 37938 ft | 362 kts | 294° |
| 2026-04-30 12:45 | 30.22353 | -90.92926 | 37950 ft | 362 kts | 294° |
| 2026-04-30 12:45 | 30.24465 | -90.98206 | 37947 ft | 362 kts | 294° |
| 2026-04-30 12:46 | 30.26578 | -91.03490 | 37947 ft | 362 kts | 294° |
| 2026-04-30 12:46 | 30.28688 | -91.08779 | 37959 ft | 362 kts | 294° |
| 2026-04-30 12:47 | 30.30786 | -91.14073 | 37952 ft | 362 kts | 294° |
| 2026-04-30 12:47 | 30.32883 | -91.19361 | 37952 ft | 361 kts | 294° |
| 2026-04-30 12:48 | 30.34980 | -91.24645 | 37944 ft | 361 kts | 294° |
| 2026-04-30 12:48 | 30.37065 | -91.29894 | 37948 ft | 361 kts | 294° |
| 2026-04-30 12:49 | 30.39158 | -91.35172 | 37946 ft | 361 kts | 294° |
| 2026-04-30 12:49 | 30.41250 | -91.40458 | 37948 ft | 361 kts | 294° |
| 2026-04-30 12:50 | 30.43316 | -91.45761 | 37956 ft | 361 kts | 293° |
| 2026-04-30 12:50 | 30.45393 | -91.51057 | 37945 ft | 361 kts | 294° |
| 2026-04-30 12:51 | 30.47488 | -91.56353 | 37960 ft | 361 kts | 294° |
| 2026-04-30 12:51 | 30.49579 | -91.61649 | 37952 ft | 361 kts | 294° |
| 2026-04-30 12:52 | 30.51664 | -91.66944 | 37946 ft | 361 kts | 293° |
| 2026-04-30 12:52 | 30.53730 | -91.72214 | 37941 ft | 361 kts | 293° |
| 2026-04-30 12:53 | 30.55807 | -91.77518 | 37944 ft | 361 kts | 293° |
| 2026-04-30 12:53 | 30.57884 | -91.82833 | 37949 ft | 361 kts | 293° |
| 2026-04-30 12:54 | 30.59944 | -91.88137 | 37955 ft | 361 kts | 293° |
| 2026-04-30 12:54 | 30.62013 | -91.93460 | 37953 ft | 361 kts | 293° |
| 2026-04-30 12:55 | 30.64063 | -91.98742 | 37957 ft | 361 kts | 293° |
| 2026-04-30 12:55 | 30.66126 | -92.04051 | 37953 ft | 361 kts | 293° |
| 2026-04-30 12:56 | 30.68194 | -92.09376 | 37955 ft | 361 kts | 293° |
| 2026-04-30 12:56 | 30.70245 | -92.14672 | 37947 ft | 361 kts | 293° |
| 2026-04-30 12:57 | 30.72302 | -92.19999 | 37947 ft | 361 kts | 293° |
| 2026-04-30 12:57 | 30.74358 | -92.25326 | 37970 ft | 361 kts | 293° |
| 2026-04-30 12:58 | 30.76408 | -92.30655 | 37955 ft | 361 kts | 292° |
| 2026-04-30 12:58 | 30.78460 | -92.35995 | 37963 ft | 361 kts | 292° |
| 2026-04-30 12:59 | 30.80497 | -92.41294 | 37971 ft | 361 kts | 292° |
| 2026-04-30 12:59 | 30.82543 | -92.46630 | 37960 ft | 361 kts | 292° |
| 2026-04-30 13:00 | 30.84586 | -92.51976 | 37955 ft | 361 kts | 292° |
| 2026-04-30 13:00 | 30.86624 | -92.57319 | 37959 ft | 361 kts | 292° |
| 2026-04-30 13:01 | 30.88654 | -92.62632 | 37939 ft | 361 kts | 292° |
| 2026-04-30 13:01 | 30.90693 | -92.67970 | 37941 ft | 361 kts | 292° |
| 2026-04-30 13:02 | 30.92731 | -92.73317 | 37947 ft | 361 kts | 292° |
| 2026-04-30 13:02 | 30.94771 | -92.78671 | 37950 ft | 361 kts | 292° |
| 2026-04-30 13:03 | 30.96798 | -92.84026 | 37943 ft | 361 kts | 292° |
| 2026-04-30 13:03 | 30.98818 | -92.89380 | 37951 ft | 361 kts | 292° |
| 2026-04-30 13:04 | 31.00836 | -92.94708 | 37950 ft | 361 kts | 292° |
| 2026-04-30 13:04 | 31.02870 | -93.00074 | 37948 ft | 361 kts | 292° |
| 2026-04-30 13:05 | 31.04893 | -93.05435 | 37946 ft | 361 kts | 292° |
| 2026-04-30 13:06 | 31.07915 | -93.13444 | 37948 ft | 361 kts | 292° |
| 2026-04-30 13:06 | 31.09928 | -93.18811 | 37948 ft | 361 kts | 292° |
| 2026-04-30 13:07 | 31.11939 | -93.24172 | 37944 ft | 360 kts | 292° |
| 2026-04-30 13:07 | 31.13941 | -93.29525 | 37941 ft | 360 kts | 291° |
| 2026-04-30 13:08 | 31.15944 | -93.34896 | 37957 ft | 360 kts | 291° |
| 2026-04-30 13:08 | 31.17931 | -93.40263 | 37956 ft | 360 kts | 291° |
| 2026-04-30 13:09 | 31.19918 | -93.45601 | 37959 ft | 360 kts | 291° |
| 2026-04-30 13:09 | 31.21908 | -93.50958 | 37960 ft | 359 kts | 291° |
| 2026-04-30 13:10 | 31.23899 | -93.56316 | 37978 ft | 359 kts | 291° |
| 2026-04-30 13:10 | 31.25886 | -93.61678 | 37977 ft | 359 kts | 291° |
| 2026-04-30 13:11 | 31.27868 | -93.67035 | 37979 ft | 359 kts | 291° |
| 2026-04-30 13:11 | 31.29843 | -93.72393 | 37979 ft | 358 kts | 291° |
| 2026-04-30 13:12 | 31.31813 | -93.77754 | 37974 ft | 359 kts | 291° |
| 2026-04-30 13:12 | 31.33764 | -93.83080 | 37961 ft | 358 kts | 291° |
| 2026-04-30 13:13 | 31.36717 | -93.91115 | 37974 ft | 357 kts | 291° |
| 2026-04-30 13:14 | 31.39653 | -93.99131 | 37978 ft | 358 kts | 291° |
| 2026-04-30 13:14 | 31.42580 | -94.07164 | 37990 ft | 357 kts | 290° |
| 2026-04-30 13:15 | 31.45480 | -94.15145 | 37991 ft | 357 kts | 290° |
| 2026-04-30 13:16 | 31.47432 | -94.20494 | 37984 ft | 357 kts | 290° |
| 2026-04-30 13:16 | 31.49378 | -94.25835 | 37990 ft | 357 kts | 290° |
| 2026-04-30 13:17 | 31.52283 | -94.33840 | 37989 ft | 356 kts | 290° |
| 2026-04-30 13:18 | 31.55189 | -94.41871 | 37991 ft | 356 kts | 290° |
| 2026-04-30 13:18 | 31.58091 | -94.49897 | 37989 ft | 357 kts | 290° |
| 2026-04-30 13:19 | 31.60027 | -94.55260 | 37991 ft | 356 kts | 290° |
| 2026-04-30 13:19 | 31.61959 | -94.60630 | 37989 ft | 357 kts | 290° |
| 2026-04-30 13:20 | 31.63885 | -94.65993 | 37990 ft | 357 kts | 290° |
| 2026-04-30 13:20 | 31.65813 | -94.71364 | 37990 ft | 357 kts | 290° |
| 2026-04-30 13:21 | 31.67736 | -94.76741 | 37988 ft | 357 kts | 290° |
| 2026-04-30 13:22 | 31.70612 | -94.84789 | 37986 ft | 357 kts | 290° |
| 2026-04-30 13:22 | 31.73497 | -94.92869 | 37981 ft | 358 kts | 290° |
| 2026-04-30 13:23 | 31.76052 | -95.00061 | 37959 ft | 358 kts | 290° |
| 2026-04-30 13:24 | 31.79865 | -95.10828 | 37977 ft | 357 kts | 289° |
| 2026-04-30 13:25 | 31.83680 | -95.21629 | 37967 ft | 358 kts | 289° |
| 2026-04-30 13:26 | 31.88437 | -95.35134 | 37955 ft | 357 kts | 289° |
| 2026-04-30 13:28 | 31.93152 | -95.48595 | 37979 ft | 356 kts | 289° |
| 2026-04-30 13:28 | 31.95980 | -95.56698 | 37984 ft | 356 kts | 289° |
| 2026-04-30 13:29 | 31.99741 | -95.67491 | 37985 ft | 356 kts | 289° |
| 2026-04-30 13:31 | 32.04409 | -95.80918 | 37988 ft | 354 kts | 288° |
| 2026-04-30 13:32 | 32.09063 | -95.94380 | 37983 ft | 354 kts | 288° |
| 2026-04-30 13:33 | 32.12772 | -96.05117 | 37984 ft | 354 kts | 288° |
| 2026-04-30 13:34 | 32.15560 | -96.13207 | 37987 ft | 355 kts | 288° |
| 2026-04-30 13:35 | 32.19273 | -96.23989 | 37989 ft | 354 kts | 289° |
| 2026-04-30 13:36 | 32.23366 | -96.34550 | 37993 ft | 354 kts | 291° |
| 2026-04-30 13:36 | 32.26514 | -96.42459 | 37998 ft | 354 kts | 290° |
| 2026-04-30 13:37 | 32.29594 | -96.50378 | 38000 ft | 353 kts | 290° |
| 2026-04-30 13:38 | 32.32633 | -96.58268 | 37999 ft | 352 kts | 290° |
| 2026-04-30 13:39 | 32.36687 | -96.68799 | 38007 ft | 351 kts | 290° |
| 2026-04-30 13:40 | 32.39710 | -96.76702 | 38010 ft | 351 kts | 289° |
| 2026-04-30 13:40 | 32.41721 | -96.81964 | 38008 ft | 350 kts | 289° |
| 2026-04-30 13:41 | 32.43733 | -96.87217 | 38006 ft | 351 kts | 290° |
| 2026-04-30 13:41 | 32.45736 | -96.92448 | 38006 ft | 350 kts | 289° |
| 2026-04-30 13:42 | 32.47735 | -96.97696 | 38001 ft | 350 kts | 289° |
| 2026-04-30 13:42 | 32.50720 | -97.05559 | 38005 ft | 350 kts | 289° |
| 2026-04-30 13:43 | 32.52715 | -97.10806 | 38004 ft | 349 kts | 289° |
| 2026-04-30 13:43 | 32.54705 | -97.16055 | 38008 ft | 349 kts | 289° |
| 2026-04-30 13:44 | 32.56695 | -97.21302 | 38006 ft | 349 kts | 289° |
| 2026-04-30 13:44 | 32.58686 | -97.26552 | 38014 ft | 349 kts | 289° |
| 2026-04-30 13:45 | 32.61645 | -97.34405 | 38016 ft | 349 kts | 289° |
| 2026-04-30 13:46 | 32.63623 | -97.39659 | 38015 ft | 348 kts | 289° |
| 2026-04-30 13:46 | 32.65602 | -97.44904 | 38018 ft | 349 kts | 289° |
| 2026-04-30 13:47 | 32.67577 | -97.50157 | 38026 ft | 348 kts | 289° |
| 2026-04-30 13:47 | 32.69550 | -97.55407 | 38029 ft | 348 kts | 289° |
| 2026-04-30 13:48 | 32.71524 | -97.60668 | 38024 ft | 348 kts | 289° |
| 2026-04-30 13:48 | 32.73485 | -97.65933 | 38022 ft | 348 kts | 288° |
| 2026-04-30 13:49 | 32.75451 | -97.71196 | 38031 ft | 348 kts | 289° |
| 2026-04-30 13:49 | 32.77404 | -97.76421 | 38024 ft | 348 kts | 289° |
| 2026-04-30 13:50 | 32.79366 | -97.81679 | 38025 ft | 347 kts | 289° |
| 2026-04-30 13:50 | 32.82299 | -97.89557 | 38092 ft | 346 kts | 288° |
| 2026-04-30 13:51 | 32.83276 | -97.92184 | 38273 ft | 347 kts | 288° |
| 2026-04-30 13:51 | 32.84242 | -97.94779 | 38399 ft | 349 kts | 288° |
| 2026-04-30 13:51 | 32.86195 | -98.00074 | 38421 ft | 350 kts | 288° |
| 2026-04-30 13:52 | 32.88147 | -98.05383 | 38557 ft | 348 kts | 287° |
| 2026-04-30 13:52 | 32.89114 | -98.08028 | 38823 ft | 350 kts | 287° |
| 2026-04-30 13:52 | 32.90087 | -98.10689 | 39081 ft | 352 kts | 287° |
| 2026-04-30 13:53 | 32.91069 | -98.13371 | 39321 ft | 353 kts | 288° |
| 2026-04-30 13:53 | 32.92056 | -98.16057 | 39581 ft | 356 kts | 288° |
| 2026-04-30 13:53 | 32.93055 | -98.18772 | 39836 ft | 358 kts | 288° |
| 2026-04-30 13:53 | 32.94060 | -98.21499 | 39984 ft | 361 kts | 288° |
| 2026-04-30 13:54 | 32.96095 | -98.26995 | 40031 ft | 364 kts | 288° |
| 2026-04-30 13:54 | 32.98128 | -98.32493 | 40043 ft | 365 kts | 288° |
| 2026-04-30 13:55 | 33.00162 | -98.38026 | 40054 ft | 365 kts | 288° |
| 2026-04-30 13:55 | 33.02193 | -98.43571 | 40051 ft | 365 kts | 288° |
| 2026-04-30 13:56 | 33.04216 | -98.49111 | 40046 ft | 364 kts | 288° |
| 2026-04-30 13:56 | 33.06233 | -98.54648 | 40047 ft | 364 kts | 288° |
| 2026-04-30 13:57 | 33.08243 | -98.60176 | 40058 ft | 364 kts | 288° |
| 2026-04-30 13:57 | 33.10254 | -98.65713 | 40059 ft | 363 kts | 288° |
| 2026-04-30 13:58 | 33.13255 | -98.73990 | 40059 ft | 363 kts | 288° |
| 2026-04-30 13:59 | 33.15261 | -98.79530 | 40054 ft | 363 kts | 288° |
| 2026-04-30 13:59 | 33.17263 | -98.85071 | 40060 ft | 363 kts | 288° |
| 2026-04-30 14:00 | 33.19265 | -98.90624 | 40065 ft | 363 kts | 288° |
| 2026-04-30 14:00 | 33.22243 | -98.98898 | 40064 ft | 363 kts | 288° |
| 2026-04-30 14:01 | 33.24236 | -99.04445 | 40070 ft | 363 kts | 288° |
| 2026-04-30 14:01 | 33.26226 | -99.09996 | 40066 ft | 363 kts | 288° |
| 2026-04-30 14:02 | 33.28215 | -99.15552 | 40057 ft | 363 kts | 288° |
| 2026-04-30 14:02 | 33.30199 | -99.21102 | 40082 ft | 363 kts | 288° |
| 2026-04-30 14:03 | 33.32180 | -99.26656 | 40082 ft | 363 kts | 288° |
| 2026-04-30 14:03 | 33.34164 | -99.32226 | 40077 ft | 364 kts | 288° |
| 2026-04-30 14:04 | 33.36134 | -99.37763 | 40069 ft | 363 kts | 288° |
| 2026-04-30 14:04 | 33.38112 | -99.43334 | 40079 ft | 364 kts | 288° |
| 2026-04-30 14:05 | 33.40089 | -99.48914 | 40081 ft | 364 kts | 287° |
| 2026-04-30 14:05 | 33.42064 | -99.54497 | 40082 ft | 364 kts | 287° |
| 2026-04-30 14:06 | 33.45010 | -99.62843 | 40083 ft | 364 kts | 287° |
| 2026-04-30 14:07 | 33.47954 | -99.71209 | 40079 ft | 363 kts | 287° |
| 2026-04-30 14:08 | 33.50891 | -99.79578 | 40067 ft | 363 kts | 287° |
| 2026-04-30 14:08 | 33.53826 | -99.87960 | 40077 ft | 362 kts | 287° |
| 2026-04-30 14:09 | 33.55757 | -99.93488 | 40081 ft | 362 kts | 287° |
| 2026-04-30 14:10 | 33.58671 | -100.01839 | 40079 ft | 362 kts | 287° |
| 2026-04-30 14:10 | 33.60613 | -100.07418 | 40083 ft | 362 kts | 287° |
| 2026-04-30 14:11 | 33.62553 | -100.13008 | 40082 ft | 363 kts | 287° |
| 2026-04-30 14:11 | 33.64168 | -100.17665 | 40080 ft | 363 kts | 287° |
| 2026-04-30 14:12 | 33.66104 | -100.23260 | 40089 ft | 363 kts | 287° |
| 2026-04-30 14:12 | 33.67983 | -100.28879 | 40090 ft | 362 kts | 286° |
| 2026-04-30 14:13 | 33.69804 | -100.34508 | 40091 ft | 362 kts | 286° |
| 2026-04-30 14:13 | 33.71600 | -100.40121 | 40091 ft | 362 kts | 286° |
| 2026-04-30 14:14 | 33.73416 | -100.45779 | 40091 ft | 363 kts | 286° |
| 2026-04-30 14:14 | 33.75241 | -100.51436 | 40098 ft | 363 kts | 286° |
| 2026-04-30 14:15 | 33.77059 | -100.57075 | 40100 ft | 363 kts | 286° |
| 2026-04-30 14:15 | 33.78886 | -100.62744 | 40108 ft | 364 kts | 286° |
| 2026-04-30 14:16 | 33.80716 | -100.68427 | 40108 ft | 364 kts | 286° |
| 2026-04-30 14:16 | 33.82541 | -100.74117 | 40110 ft | 365 kts | 285° |
| 2026-04-30 14:17 | 33.84365 | -100.79823 | 40110 ft | 365 kts | 285° |
| 2026-04-30 14:17 | 33.86174 | -100.85485 | 40113 ft | 365 kts | 285° |
| 2026-04-30 14:18 | 33.87998 | -100.91196 | 40112 ft | 366 kts | 285° |
| 2026-04-30 14:18 | 33.90730 | -100.99786 | 40108 ft | 367 kts | 285° |
| 2026-04-30 14:19 | 33.93468 | -101.08406 | 40112 ft | 367 kts | 285° |
| 2026-04-30 14:20 | 33.95289 | -101.14153 | 40108 ft | 368 kts | 285° |
| 2026-04-30 14:20 | 33.98020 | -101.22804 | 40108 ft | 369 kts | 285° |
| 2026-04-30 14:21 | 33.99840 | -101.28578 | 40110 ft | 369 kts | 285° |
| 2026-04-30 14:22 | 34.02564 | -101.37221 | 40110 ft | 366 kts | 285° |
| 2026-04-30 14:22 | 34.05256 | -101.45801 | 40109 ft | 366 kts | 285° |
| 2026-04-30 14:23 | 34.08841 | -101.57291 | 40116 ft | 367 kts | 285° |
| 2026-04-30 14:24 | 34.11536 | -101.65936 | 40120 ft | 367 kts | 285° |
| 2026-04-30 14:25 | 34.15125 | -101.77498 | 40119 ft | 368 kts | 284° |
| 2026-04-30 14:26 | 34.17811 | -101.86185 | 40120 ft | 368 kts | 284° |
| 2026-04-30 14:27 | 34.20499 | -101.94892 | 40118 ft | 368 kts | 284° |
| 2026-04-30 14:27 | 34.22276 | -102.00660 | 40126 ft | 368 kts | 284° |
| 2026-04-30 14:28 | 34.24957 | -102.09385 | 40130 ft | 368 kts | 284° |
| 2026-04-30 14:28 | 34.26736 | -102.15190 | 40129 ft | 368 kts | 284° |
| 2026-04-30 14:29 | 34.29987 | -102.25826 | 40133 ft | 368 kts | 284° |
| 2026-04-30 14:31 | 34.34705 | -102.41354 | 40138 ft | 369 kts | 284° |
| 2026-04-30 14:31 | 34.37334 | -102.50050 | 40145 ft | 368 kts | 284° |
| 2026-04-30 14:32 | 34.39971 | -102.58781 | 40137 ft | 368 kts | 284° |
| 2026-04-30 14:33 | 34.41725 | -102.64605 | 40138 ft | 368 kts | 284° |
| 2026-04-30 14:33 | 34.44336 | -102.73317 | 40145 ft | 368 kts | 284° |
| 2026-04-30 14:34 | 34.46079 | -102.79140 | 40146 ft | 368 kts | 284° |
| 2026-04-30 14:34 | 34.47827 | -102.84986 | 40148 ft | 368 kts | 283° |
| 2026-04-30 14:35 | 34.50438 | -102.93754 | 40146 ft | 368 kts | 283° |
| 2026-04-30 14:36 | 34.52175 | -102.99594 | 40146 ft | 368 kts | 283° |
| 2026-04-30 14:36 | 34.53901 | -103.05406 | 40146 ft | 368 kts | 283° |
| 2026-04-30 14:37 | 34.55639 | -103.11265 | 40141 ft | 368 kts | 283° |
| 2026-04-30 14:37 | 34.57369 | -103.17117 | 40138 ft | 369 kts | 283° |
| 2026-04-30 14:38 | 34.59086 | -103.22952 | 40137 ft | 369 kts | 283° |
| 2026-04-30 14:38 | 34.60810 | -103.28828 | 40137 ft | 370 kts | 283° |
| 2026-04-30 14:39 | 34.62537 | -103.34712 | 40124 ft | 370 kts | 283° |
| 2026-04-30 14:39 | 34.64266 | -103.40605 | 40123 ft | 370 kts | 283° |
| 2026-04-30 14:40 | 34.66851 | -103.49431 | 40134 ft | 370 kts | 283° |
| 2026-04-30 14:40 | 34.68571 | -103.55317 | 40124 ft | 370 kts | 283° |
| 2026-04-30 14:41 | 34.70288 | -103.61210 | 40126 ft | 370 kts | 283° |
| 2026-04-30 14:41 | 34.72000 | -103.67095 | 40127 ft | 370 kts | 283° |
| 2026-04-30 14:42 | 34.73702 | -103.72960 | 40130 ft | 369 kts | 283° |
| 2026-04-30 14:42 | 34.75410 | -103.78858 | 40127 ft | 370 kts | 283° |
| 2026-04-30 14:43 | 34.76397 | -103.82271 | 40126 ft | 369 kts | 283° |
| 2026-04-30 14:43 | 34.77163 | -103.84923 | 40096 ft | 370 kts | 282° |
| 2026-04-30 14:44 | 34.78862 | -103.90815 | 40107 ft | 368 kts | 282° |
| 2026-04-30 14:44 | 34.80553 | -103.96695 | 40123 ft | 368 kts | 282° |
| 2026-04-30 14:45 | 34.82245 | -104.02591 | 40128 ft | 369 kts | 282° |
| 2026-04-30 14:45 | 34.83925 | -104.08466 | 40134 ft | 370 kts | 282° |
| 2026-04-30 14:46 | 34.85613 | -104.14380 | 40129 ft | 370 kts | 282° |
| 2026-04-30 14:46 | 34.87025 | -104.19333 | 40128 ft | 369 kts | 282° |
| 2026-04-30 14:47 | 34.88982 | -104.26207 | 40129 ft | 369 kts | 282° |
| 2026-04-30 14:47 | 34.90651 | -104.32122 | 40132 ft | 368 kts | 281° |
| 2026-04-30 14:48 | 34.91890 | -104.38131 | 40128 ft | 364 kts | 276° |
| 2026-04-30 14:48 | 34.92721 | -104.44202 | 40127 ft | 362 kts | 274° |
| 2026-04-30 14:49 | 34.93435 | -104.50290 | 40128 ft | 362 kts | 274° |
| 2026-04-30 14:49 | 34.94183 | -104.56368 | 40128 ft | 363 kts | 274° |
| 2026-04-30 14:50 | 34.95428 | -104.65480 | 40130 ft | 363 kts | 275° |
| 2026-04-30 14:51 | 34.96734 | -104.74549 | 40128 ft | 363 kts | 275° |
| 2026-04-30 14:52 | 34.98036 | -104.83665 | 40132 ft | 363 kts | 275° |
| 2026-04-30 14:52 | 34.99320 | -104.92728 | 40133 ft | 363 kts | 275° |
| 2026-04-30 14:53 | 35.00594 | -105.01828 | 40138 ft | 363 kts | 275° |
| 2026-04-30 14:54 | 35.02278 | -105.13979 | 40146 ft | 363 kts | 275° |
| 2026-04-30 14:55 | 35.03529 | -105.23066 | 40149 ft | 363 kts | 275° |
| 2026-04-30 14:56 | 35.05191 | -105.35223 | 40155 ft | 363 kts | 275° |
| 2026-04-30 14:57 | 35.06428 | -105.44328 | 40156 ft | 364 kts | 275° |
| 2026-04-30 14:58 | 35.08082 | -105.56507 | 40162 ft | 363 kts | 275° |
| 2026-04-30 14:58 | 35.09172 | -105.64614 | 40166 ft | 363 kts | 275° |
| 2026-04-30 15:00 | 35.11195 | -105.79820 | 40163 ft | 363 kts | 275° |
| 2026-04-30 15:01 | 35.12805 | -105.92030 | 40148 ft | 364 kts | 275° |
| 2026-04-30 15:01 | 35.14006 | -106.01202 | 40146 ft | 364 kts | 275° |
| 2026-04-30 15:02 | 35.14803 | -106.07323 | 40138 ft | 365 kts | 275° |
| 2026-04-30 15:03 | 35.16782 | -106.22620 | 40126 ft | 366 kts | 275° |
| 2026-04-30 15:04 | 35.18750 | -106.38001 | 40097 ft | 367 kts | 275° |
| 2026-04-30 15:06 | 35.20693 | -106.53372 | 40076 ft | 366 kts | 274° |
| 2026-04-30 15:07 | 35.22233 | -106.65687 | 40080 ft | 365 kts | 274° |
| 2026-04-30 15:08 | 35.23765 | -106.78005 | 40082 ft | 366 kts | 274° |
| 2026-04-30 15:09 | 35.25662 | -106.93400 | 40092 ft | 367 kts | 274° |
| 2026-04-30 15:10 | 35.27171 | -107.05765 | 40097 ft | 367 kts | 274° |
| 2026-04-30 15:11 | 35.29409 | -107.24312 | 40100 ft | 368 kts | 274° |
| 2026-04-30 15:13 | 35.31259 | -107.39846 | 40110 ft | 369 kts | 274° |
| 2026-04-30 15:14 | 35.33829 | -107.61689 | 40120 ft | 371 kts | 274° |
| 2026-04-30 15:17 | 35.37098 | -107.89971 | 40127 ft | 374 kts | 274° |
| 2026-04-30 15:19 | 35.39947 | -108.15264 | 40118 ft | 376 kts | 274° |